Time;durP1;ratioP1;P1;durP2;ratioP2;P2;SDS_P1;SDS_P2;PMS_P1;PMS_P2;Temp;Humidity;BMP_temperature;BMP_pressure;BME280_temperature;BME280_humidity;BME280_pressure;Samples;Min_cycle;Max_cycle;Signal;HPM_P1;HPM_P2
2021/08/17 00:01:59;;;;;;;3.55;2.00;;;;;;;20.88;70.35;99192.37;4485691;31;33788;-81
2021/08/17 00:04:27;;;;;;;5.72;2.87;;;;;;;20.97;69.52;99191.50;4473348;31;32266;-82
2021/08/17 00:06:56;;;;;;;4.75;2.87;;;;;;;20.89;68.98;99186.06;4472624;31;33275;-82
2021/08/17 00:09:24;;;;;;;3.55;2.08;;;;;;;20.74;69.62;99176.78;4487299;31;34040;-82
2021/08/17 00:11:51;;;;;;;4.65;2.28;;;;;;;20.63;70.17;99175.97;4465279;31;34096;-82
2021/08/17 00:14:19;;;;;;;5.53;2.17;;;;;;;20.39;69.90;99181.78;4478436;31;33897;-82
2021/08/17 00:16:47;;;;;;;2.97;2.12;;;;;;;20.89;68.13;99180.69;4472625;31;34481;-82
2021/08/17 00:19:14;;;;;;;5.30;2.17;;;;;;;20.87;68.10;99182.66;4466270;31;33667;-82
2021/08/17 00:21:42;;;;;;;3.67;2.42;;;;;;;20.70;67.64;99192.34;4485237;31;33475;-83
2021/08/17 00:24:09;;;;;;;3.20;2.30;;;;;;;20.54;68.20;99190.25;4469747;31;32397;-83
2021/08/17 00:26:37;;;;;;;4.68;2.75;;;;;;;20.72;67.17;99187.66;4471666;31;34057;-84
2021/08/17 00:29:05;;;;;;;6.55;3.35;;;;;;;20.48;67.82;99201.56;4470273;31;35067;-83
2021/08/17 00:31:32;;;;;;;5.22;2.17;;;;;;;20.37;68.28;99215.97;4480298;31;34574;-83
2021/08/17 00:34:00;;;;;;;5.03;2.83;;;;;;;20.36;68.40;99218.75;4479405;31;32309;-83
2021/08/17 00:36:30;;;;;;;6.80;3.05;;;;;;;20.17;68.94;99220.47;4460676;31;33919;-83
2021/08/17 00:38:59;;;;;;;6.60;3.25;;;;;;;20.43;67.75;99230.63;4462187;31;34047;-83
2021/08/17 00:41:28;;;;;;;4.45;2.42;;;;;;;19.90;71.07;99231.06;4477640;31;33186;-83
2021/08/17 00:43:55;;;;;;;4.75;2.55;;;;;;;20.13;70.13;99234.28;4459657;31;32638;-84
2021/08/17 00:46:24;;;;;;;4.45;2.65;;;;;;;20.24;69.98;99238.69;4483578;31;33924;-83
2021/08/17 00:48:52;;;;;;;7.07;2.58;;;;;;;19.93;70.69;99255.72;4478851;31;33687;-83
2021/08/17 00:51:19;;;;;;;6.37;3.08;;;;;;;19.61;72.01;99295.31;4466091;31;34792;-83
2021/08/17 00:53:51;;;;;;;9.20;3.33;;;;;;;19.93;70.20;99333.44;4473981;31;33107;-82
2021/08/17 00:56:19;;;;;;;5.72;3.08;;;;;;;20.11;70.08;99335.44;4474841;31;33229;-83
2021/08/17 00:58:46;;;;;;;8.15;2.72;;;;;;;20.38;69.35;99313.34;4486179;31;34756;-82
2021/08/17 01:01:15;;;;;;;6.07;3.65;;;;;;;20.37;69.80;99295.56;4488621;31;34378;-82
2021/08/17 01:03:43;;;;;;;6.85;3.10;;;;;;;20.21;70.39;99270.13;4471324;31;34201;-82
2021/08/17 01:06:10;;;;;;;4.12;2.90;;;;;;;20.27;70.10;99273.22;4489478;31;34536;-82
2021/08/17 01:08:38;;;;;;;5.10;3.00;;;;;;;20.17;71.17;99279.44;4471985;31;33996;-82
2021/08/17 01:11:06;;;;;;;4.55;3.42;;;;;;;20.09;71.26;99297.25;4479062;31;33897;-82
2021/08/17 01:13:33;;;;;;;3.97;2.62;;;;;;;20.13;71.05;99304.84;4461403;31;32220;-82
2021/08/17 01:16:01;;;;;;;4.60;2.78;;;;;;;20.36;70.30;99291.16;4466373;31;32927;-81
2021/08/17 01:18:29;;;;;;;4.62;2.58;;;;;;;20.50;69.59;99282.72;4474061;32;33774;-82
2021/08/17 01:20:58;;;;;;;7.07;2.90;;;;;;;20.86;68.20;99273.06;4476776;31;34526;-81
2021/08/17 01:23:30;;;;;;;8.90;3.20;;;;;;;20.64;69.37;99263.50;4477824;31;33387;-82
2021/08/17 01:25:58;;;;;;;4.28;2.72;;;;;;;20.52;69.53;99256.59;4482774;31;33918;-82
2021/08/17 01:28:26;;;;;;;5.40;3.20;;;;;;;20.34;69.32;99242.19;4465277;31;34634;-82
2021/08/17 01:31:05;;;;;;;3.85;2.60;;;;;;;20.44;68.70;99226.94;4483910;31;33510;-82
2021/08/17 01:33:34;;;;;;;3.95;2.87;;;;;;;20.30;69.46;99213.97;4468660;31;33003;-82
2021/08/17 01:36:03;;;;;;;9.95;3.72;;;;;;;19.93;71.36;99195.94;4473568;31;33665;-81
2021/08/17 01:38:31;;;;;;;5.30;2.87;;;;;;;19.98;70.54;99177.59;4479545;31;34735;-82
2021/08/17 01:40:59;;;;;;;9.48;2.78;;;;;;;20.36;68.99;99165.13;4474710;31;33645;-81
2021/08/17 01:43:26;;;;;;;6.68;2.70;;;;;;;20.21;68.72;99168.28;4482347;31;33338;-82
2021/08/17 01:45:58;;;;;;;7.18;3.28;;;;;;;20.23;69.67;99175.34;4478609;31;34656;-81
2021/08/17 01:48:26;;;;;;;7.62;3.85;;;;;;;20.49;67.73;99171.06;4475215;31;34563;-81
2021/08/17 01:50:54;;;;;;;4.82;2.60;;;;;;;20.28;69.15;99157.84;4469809;32;33816;-81
2021/08/17 01:53:23;;;;;;;5.18;2.42;;;;;;;20.13;69.81;99153.88;4472089;31;33430;-81
2021/08/17 01:55:52;;;;;;;5.53;3.08;;;;;;;20.45;67.98;99148.19;4480168;31;34600;-81
2021/08/17 01:58:21;;;;;;;7.40;3.25;;;;;;;20.50;68.20;99150.47;4484711;31;33986;-81
2021/08/17 02:00:48;;;;;;;6.28;2.78;;;;;;;19.87;70.92;99153.66;4486203;31;34397;-81
2021/08/17 02:03:16;;;;;;;4.62;2.90;;;;;;;20.18;70.45;99147.13;4477032;31;33091;-81
2021/08/17 02:05:45;;;;;;;6.00;3.15;;;;;;;20.00;70.08;99151.53;4473781;31;34034;-82
2021/08/17 02:08:12;;;;;;;5.00;2.65;;;;;;;20.23;69.50;99148.53;4490316;31;34014;-81
2021/08/17 02:10:40;;;;;;;6.37;3.05;;;;;;;20.43;69.21;99161.75;4477164;31;33732;-81
2021/08/17 02:13:08;;;;;;;6.12;2.70;;;;;;;20.54;68.21;99163.44;4473768;31;33478;-81
2021/08/17 02:15:36;;;;;;;6.55;3.33;;;;;;;20.84;66.61;99166.84;4470864;31;34648;-81
2021/08/17 02:18:04;;;;;;;6.37;2.97;;;;;;;20.44;68.33;99167.94;4469475;31;33841;-82
2021/08/17 02:20:31;;;;;;;5.45;3.28;;;;;;;20.46;68.75;99182.03;4466402;31;34470;-81
2021/08/17 02:22:59;;;;;;;5.45;2.45;;;;;;;20.45;67.80;99196.44;4487264;31;33160;-81
2021/08/17 02:25:26;;;;;;;6.00;3.25;;;;;;;20.50;67.03;99207.63;4485548;31;34760;-81
2021/08/17 02:27:54;;;;;;;5.82;2.70;;;;;;;20.51;67.31;99217.38;4467320;31;34628;-82
2021/08/17 02:30:22;;;;;;;6.10;3.42;;;;;;;20.17;68.58;99217.78;4479684;31;33692;-81
2021/08/17 02:32:50;;;;;;;4.12;2.60;;;;;;;20.17;69.42;99225.84;4484568;31;32034;-81
2021/08/17 02:35:18;;;;;;;7.78;3.62;;;;;;;20.19;68.89;99234.59;4488643;31;33267;-81
2021/08/17 02:37:45;;;;;;;4.72;3.12;;;;;;;20.11;69.59;99253.22;4486937;31;33683;-81
2021/08/17 02:40:13;;;;;;;6.50;3.03;;;;;;;20.37;67.98;99264.22;4492006;31;33766;-81
2021/08/17 02:42:41;;;;;;;6.28;3.15;;;;;;;20.32;68.37;99282.56;4470680;31;33083;-80
2021/08/17 02:45:09;;;;;;;3.70;2.12;;;;;;;20.18;68.56;99301.75;4487643;31;33722;-81
2021/08/17 02:47:37;;;;;;;3.95;3.03;;;;;;;20.35;67.74;99327.00;4472679;31;32731;-81
2021/08/17 02:50:05;;;;;;;6.32;2.67;;;;;;;20.19;68.20;99355.22;4484839;31;34804;-80
2021/08/17 02:52:34;;;;;;;6.12;2.60;;;;;;;20.52;66.84;99353.16;4473137;32;34055;-81
2021/08/17 02:55:03;;;;;;;4.55;3.03;;;;;;;20.38;66.47;99316.00;4472400;31;33463;-80
2021/08/17 02:57:30;;;;;;;5.12;2.85;;;;;;;19.94;68.93;99326.28;4491815;31;34717;-82
2021/08/17 02:59:58;;;;;;;4.65;2.80;;;;;;;20.04;68.36;99347.72;4485095;31;33656;-82
2021/08/17 03:02:25;;;;;;;4.87;2.47;;;;;;;20.05;68.49;99350.25;4473634;31;32701;-82
2021/08/17 03:04:53;;;;;;;4.62;2.60;;;;;;;20.32;66.82;99346.03;4481287;31;34296;-82
2021/08/17 03:07:21;;;;;;;4.47;2.65;;;;;;;20.27;66.45;99332.22;4466957;31;33930;-83
2021/08/17 03:09:49;;;;;;;4.65;2.47;;;;;;;20.07;67.03;99329.50;4471551;31;33637;-82
2021/08/17 03:12:16;;;;;;;4.95;2.78;;;;;;;20.44;65.08;99328.84;4469914;31;33819;-82
2021/08/17 03:14:44;;;;;;;5.80;2.53;;;;;;;20.29;65.79;99333.78;4488098;31;34873;-82
2021/08/17 03:17:12;;;;;;;3.80;2.50;;;;;;;19.93;67.02;99348.66;4472046;31;33671;-82
2021/08/17 03:19:39;;;;;;;6.60;2.80;;;;;;;20.02;66.87;99357.72;4464973;32;32747;-82
2021/08/17 03:22:09;;;;;;;5.75;2.33;;;;;;;19.77;67.95;99383.19;4479893;31;33426;-82
2021/08/17 03:24:36;;;;;;;5.70;2.42;;;;;;;20.02;66.77;99403.28;4460650;32;32743;-82
2021/08/17 03:27:04;;;;;;;3.67;2.78;;;;;;;19.73;68.53;99438.00;4490647;31;35022;-80
2021/08/17 03:29:32;;;;;;;5.68;3.00;;;;;;;19.84;68.33;99465.53;4461404;32;32824;-81
2021/08/17 03:31:59;;;;;;;3.58;2.33;;;;;;;20.08;67.57;99467.94;4481001;31;33501;-81
2021/08/17 03:34:27;;;;;;;4.78;2.72;;;;;;;20.32;66.45;99446.13;4471532;31;33815;-81
2021/08/17 03:36:55;;;;;;;5.70;2.65;;;;;;;20.42;66.73;99427.38;4488776;31;34081;-81
2021/08/17 03:39:22;;;;;;;5.93;2.60;;;;;;;20.58;65.62;99410.75;4471190;31;33919;-80
2021/08/17 03:41:50;;;;;;;5.00;3.22;;;;;;;20.71;64.97;99393.41;4468711;31;32302;-81
2021/08/17 03:44:17;;;;;;;3.25;2.30;;;;;;;20.52;66.19;99365.72;4489736;31;33856;-81
2021/08/17 03:46:45;;;;;;;4.68;2.60;;;;;;;20.57;65.89;99342.84;4477849;31;33990;-81
2021/08/17 03:49:13;;;;;;;3.42;2.78;;;;;;;20.46;65.72;99341.12;4490091;31;33940;-82
2021/08/17 03:51:40;;;;;;;7.32;3.15;;;;;;;20.60;64.95;99347.91;4484171;31;33124;-82
2021/08/17 03:54:08;;;;;;;6.37;2.50;;;;;;;20.49;65.77;99341.88;4460449;31;32365;-82
2021/08/17 03:56:36;;;;;;;4.45;2.45;;;;;;;20.91;64.30;99337.03;4468956;31;33647;-82
2021/08/17 03:59:03;;;;;;;3.03;2.05;;;;;;;20.89;64.58;99330.97;4475879;31;33771;-82
2021/08/17 04:01:31;;;;;;;5.82;3.15;;;;;;;20.90;63.74;99319.25;4471936;31;33389;-81
2021/08/17 04:03:59;;;;;;;4.82;2.35;;;;;;;20.66;65.30;99336.63;4484582;31;33573;-81
2021/08/17 04:06:26;;;;;;;4.32;2.37;;;;;;;20.85;64.21;99342.97;4465955;31;33424;-81
2021/08/17 04:08:54;;;;;;;4.05;2.58;;;;;;;20.89;64.49;99360.50;4489799;31;33675;-82
2021/08/17 04:11:22;;;;;;;4.80;2.60;;;;;;;20.93;64.12;99356.50;4480633;31;34006;-82
2021/08/17 04:13:49;;;;;;;5.82;2.40;;;;;;;20.49;65.94;99385.63;4475282;31;34720;-82
2021/08/17 04:16:17;;;;;;;4.32;2.45;;;;;;;20.51;65.61;99425.69;4489757;31;33629;-82
2021/08/17 04:18:46;;;;;;;5.18;2.60;;;;;;;20.44;66.99;99468.28;4473602;31;34543;-82
2021/08/17 04:21:13;;;;;;;2.75;2.50;;;;;;;20.47;66.95;99473.44;4470597;32;33401;-82
2021/08/17 04:23:41;;;;;;;4.97;2.97;;;;;;;20.70;65.88;99456.09;4481195;31;33636;-80
2021/08/17 04:26:09;;;;;;;6.97;3.22;;;;;;;20.71;66.15;99449.72;4483667;31;33753;-81
2021/08/17 04:28:37;;;;;;;3.60;2.45;;;;;;;20.71;66.75;99432.78;4460602;31;34938;-81
2021/08/17 04:31:04;;;;;;;5.18;2.33;;;;;;;20.43;69.15;99431.75;4472620;31;34164;-82
2021/08/17 04:33:32;;;;;;;7.00;2.67;;;;;;;20.84;67.23;99403.84;4487671;31;33889;-82
2021/08/17 04:36:00;;;;;;;3.22;2.92;;;;;;;20.79;68.21;99413.28;4473124;31;34150;-81
2021/08/17 04:38:27;;;;;;;4.50;3.30;;;;;;;20.11;71.32;99416.72;4490047;31;34124;-81
2021/08/17 04:40:55;;;;;;;5.93;2.85;;;;;;;20.13;70.54;99422.78;4464355;31;32582;-81
2021/08/17 04:43:22;;;;;;;4.68;2.75;;;;;;;19.79;71.57;99450.84;4478628;31;33285;-82
2021/08/17 04:45:52;;;;;;;4.00;3.05;;;;;;;20.13;70.63;99449.59;4468893;31;33561;-81
2021/08/17 04:48:25;;;;;;;5.00;2.90;;;;;;;20.45;69.20;99448.53;4492144;31;34023;-81
2021/08/17 04:50:53;;;;;;;3.92;2.45;;;;;;;20.52;68.74;99463.12;4484446;31;32302;-81
2021/08/17 04:53:20;;;;;;;6.60;2.33;;;;;;;20.54;68.64;99485.28;4479782;31;34715;-81
2021/08/17 04:55:48;;;;;;;3.30;2.45;;;;;;;20.47;69.20;99486.84;4480182;31;33986;-81
2021/08/17 04:58:15;;;;;;;6.18;2.70;;;;;;;20.17;70.26;99475.13;4474102;31;32918;-81
2021/08/17 05:00:44;;;;;;;5.18;2.95;;;;;;;20.13;70.96;99487.12;4488900;31;34149;-81
2021/08/17 05:03:12;;;;;;;4.15;2.70;;;;;;;19.91;71.92;99514.09;4492281;31;34604;-81
2021/08/17 05:05:40;;;;;;;4.25;2.47;;;;;;;20.33;69.28;99509.47;4496306;31;34820;-81
2021/08/17 05:08:09;;;;;;;4.03;2.78;;;;;;;20.03;70.41;99529.09;4470527;31;34624;-81
2021/08/17 05:10:37;;;;;;;2.87;2.53;;;;;;;20.13;70.40;99535.37;4481544;31;34318;-81
2021/08/17 05:13:05;;;;;;;4.43;3.30;;;;;;;20.04;70.63;99512.06;4464475;31;33767;-81
2021/08/17 05:15:33;;;;;;;4.85;2.87;;;;;;;20.26;69.87;99494.06;4475258;31;33529;-81
2021/08/17 05:18:02;;;;;;;7.28;3.40;;;;;;;20.35;69.58;99496.78;4484044;31;33365;-81
2021/08/17 05:20:30;;;;;;;5.40;2.45;;;;;;;20.44;69.20;99484.38;4476156;31;33132;-81
2021/08/17 05:22:59;;;;;;;5.47;2.87;;;;;;;20.43;68.21;99462.09;4477467;31;33471;-81
2021/08/17 05:25:27;;;;;;;3.25;2.60;;;;;;;20.51;68.25;99468.59;4477516;31;33416;-81
2021/08/17 05:27:55;;;;;;;2.85;2.33;;;;;;;20.41;68.75;99404.19;4473321;31;33446;-81
2021/08/17 05:30:23;;;;;;;5.10;2.75;;;;;;;19.78;70.64;99313.38;4476185;31;32921;-81
2021/08/17 05:32:51;;;;;;;4.60;2.78;;;;;;;19.22;73.62;99379.94;4487562;31;33349;-81
2021/08/17 05:35:18;;;;;;;6.18;2.80;;;;;;;19.33;73.77;99358.44;4490953;31;33630;-81
2021/08/17 05:37:46;;;;;;;6.20;2.72;;;;;;;19.63;72.61;99363.81;4486112;31;33818;-81
2021/08/17 05:40:15;;;;;;;4.97;2.80;;;;;;;19.73;71.32;99381.75;4478302;31;34437;-81
2021/08/17 05:42:43;;;;;;;3.97;2.87;;;;;;;19.71;71.60;99383.72;4458474;31;32936;-80
2021/08/17 05:45:11;;;;;;;4.75;2.72;;;;;;;19.75;72.02;99382.44;4483889;31;34100;-81
2021/08/17 05:47:45;;;;;;;4.00;2.35;;;;;;;19.93;71.09;99396.91;4462899;31;32695;-81
2021/08/17 05:50:14;;;;;;;3.70;2.22;;;;;;;19.77;72.17;99399.25;4481917;31;32932;-81
2021/08/17 05:52:42;;;;;;;6.70;2.83;;;;;;;19.64;72.24;99416.38;4483348;31;33924;-81
2021/08/17 05:55:10;;;;;;;7.18;2.60;;;;;;;20.03;70.14;99429.94;4487031;31;34005;-80
2021/08/17 05:57:38;;;;;;;5.32;2.35;;;;;;;19.97;69.97;99438.53;4475724;31;33964;-80
2021/08/17 06:00:09;;;;;;;4.47;2.65;;;;;;;19.76;71.36;99451.16;4454676;31;32740;-81
2021/08/17 06:02:38;;;;;;;3.27;1.80;;;;;;;19.83;70.30;99463.00;4479975;31;35269;-81
2021/08/17 06:05:07;;;;;;;6.57;2.53;;;;;;;19.80;70.63;99490.09;4468366;31;34019;-81
2021/08/17 06:07:36;;;;;;;4.20;2.20;;;;;;;20.03;69.72;99520.22;4491623;31;33906;-81
2021/08/17 06:10:04;;;;;;;8.77;2.42;;;;;;;20.24;68.59;99525.53;4485840;31;33389;-81
2021/08/17 06:12:32;;;;;;;4.57;2.62;;;;;;;20.06;70.16;99544.91;4472825;31;33440;-81
2021/08/17 06:15:00;;;;;;;3.00;2.08;;;;;;;20.20;69.63;99557.97;4470686;31;34902;-81
2021/08/17 06:17:27;;;;;;;3.95;2.60;;;;;;;20.35;68.08;99560.28;4482322;31;34452;-82
2021/08/17 06:19:55;;;;;;;3.62;2.17;;;;;;;20.32;68.74;99564.09;4470945;31;32274;-82
2021/08/17 06:22:24;;;;;;;2.78;2.00;;;;;;;19.95;69.21;99571.81;4480853;31;34020;-82
2021/08/17 06:24:51;;;;;;;4.28;2.85;;;;;;;20.45;68.10;99571.88;4471334;31;32990;-82
2021/08/17 06:27:19;;;;;;;4.18;2.50;;;;;;;20.44;67.77;99562.16;4487386;31;33454;-81
2021/08/17 06:29:51;;;;;;;2.97;2.30;;;;;;;20.61;66.87;99566.06;4477105;31;33084;-82
2021/08/17 06:32:19;;;;;;;6.97;2.72;;;;;;;20.15;69.34;99570.94;4470443;31;33440;-81
2021/08/17 06:34:47;;;;;;;2.85;1.95;;;;;;;20.60;66.40;99589.34;4458847;31;33375;-81
2021/08/17 06:37:15;;;;;;;5.37;2.25;;;;;;;20.43;68.45;99589.97;4479564;31;34119;-82
2021/08/17 06:39:42;;;;;;;3.20;2.00;;;;;;;20.63;66.47;99590.91;4483498;31;33363;-83
2021/08/17 06:42:10;;;;;;;5.65;1.90;;;;;;;20.54;67.23;99608.66;4466606;31;33970;-80
2021/08/17 06:44:38;;;;;;;3.67;2.30;;;;;;;20.90;65.31;99609.06;4466008;31;34131;-82
2021/08/17 06:47:06;;;;;;;4.12;2.15;;;;;;;20.89;65.27;99602.03;4481614;31;33562;-82
2021/08/17 06:49:33;;;;;;;3.58;1.83;;;;;;;20.39;68.29;99610.84;4478829;31;32738;-82
2021/08/17 06:52:02;;;;;;;3.95;2.00;;;;;;;20.59;66.78;99616.31;4483840;31;33366;-82
2021/08/17 06:54:29;;;;;;;4.40;2.17;;;;;;;20.19;67.62;99620.63;4476213;31;33200;-82
2021/08/17 06:56:57;;;;;;;3.58;2.15;;;;;;;20.59;66.35;99625.19;4471108;31;33556;-83
2021/08/17 06:59:25;;;;;;;3.00;2.00;;;;;;;20.66;66.50;99618.31;4482872;31;32763;-82
2021/08/17 07:01:52;;;;;;;7.35;2.42;;;;;;;20.70;65.81;99606.34;4469631;31;33833;-82
2021/08/17 07:04:21;;;;;;;4.12;1.75;;;;;;;20.75;66.13;99600.56;4480773;31;33722;-82
2021/08/17 07:06:48;;;;;;;4.57;2.15;;;;;;;20.76;66.08;99618.34;4461460;31;34039;-82
2021/08/17 07:09:16;;;;;;;3.37;2.10;;;;;;;20.69;65.68;99627.91;4479488;31;33032;-82
2021/08/17 07:11:44;;;;;;;8.65;2.15;;;;;;;20.52;66.65;99640.16;4479577;31;34936;-82
2021/08/17 07:14:12;;;;;;;3.00;1.95;;;;;;;20.73;65.43;99628.50;4479027;31;33580;-82
2021/08/17 07:16:39;;;;;;;3.10;2.00;;;;;;;20.94;64.93;99623.91;4486920;31;33445;-82
2021/08/17 07:19:07;;;;;;;2.75;2.10;;;;;;;20.58;66.78;99622.66;4479699;31;33823;-82
2021/08/17 07:21:35;;;;;;;6.03;2.00;;;;;;;20.50;66.30;99617.97;4469944;31;34359;-82
2021/08/17 07:24:03;;;;;;;4.15;1.98;;;;;;;20.55;65.71;99615.72;4475377;31;33619;-82
2021/08/17 07:26:31;;;;;;;5.43;2.00;;;;;;;20.55;65.93;99620.25;4483281;31;33869;-82
2021/08/17 07:28:58;;;;;;;3.08;2.05;;;;;;;20.14;68.16;99622.00;4478759;31;32980;-82
2021/08/17 07:31:26;;;;;;;3.05;1.83;;;;;;;20.43;67.27;99627.50;4486323;31;33192;-83
2021/08/17 07:33:54;;;;;;;4.70;2.55;;;;;;;20.26;68.74;99625.44;4466477;31;34850;-82
2021/08/17 07:36:21;;;;;;;3.80;1.95;;;;;;;20.60;66.84;99629.56;4448180;31;32805;-82
2021/08/17 07:38:49;;;;;;;2.10;1.75;;;;;;;20.95;65.57;99633.66;4482669;31;32470;-82
2021/08/17 07:41:17;;;;;;;2.78;1.67;;;;;;;20.91;66.10;99654.56;4482454;31;33681;-82
2021/08/17 07:43:45;;;;;;;2.47;1.67;;;;;;;20.91;65.71;99653.72;4486959;31;34135;-82
2021/08/17 07:46:12;;;;;;;2.80;1.90;;;;;;;20.48;66.91;99668.22;4486819;31;32760;-82
2021/08/17 07:48:43;;;;;;;2.28;1.75;;;;;;;20.55;66.23;99664.00;4463376;31;34792;-82
2021/08/17 07:51:10;;;;;;;2.15;1.70;;;;;;;20.43;67.19;99662.38;4468285;32;33518;-82
2021/08/17 07:53:38;;;;;;;3.58;2.00;;;;;;;20.45;66.79;99680.00;4479067;31;34671;-82
2021/08/17 07:56:06;;;;;;;2.62;1.73;;;;;;;20.73;66.10;99660.69;4468141;31;33000;-82
2021/08/17 07:58:33;;;;;;;7.12;2.40;;;;;;;20.51;67.38;99669.75;4485399;31;33434;-82
2021/08/17 08:01:01;;;;;;;3.10;2.08;;;;;;;20.76;65.66;99668.50;4459615;31;32928;-82
2021/08/17 08:03:29;;;;;;;2.12;1.40;;;;;;;20.75;65.73;99680.19;4480921;31;33406;-82
2021/08/17 08:05:56;;;;;;;10.35;1.75;;;;;;;20.67;66.47;99695.13;4460703;31;32221;-82
2021/08/17 08:08:24;;;;;;;1.23;1.12;;;;;;;20.39;68.18;99699.31;4471635;31;32958;-80
2021/08/17 08:10:52;;;;;;;3.25;1.30;;;;;;;20.66;66.53;99698.81;4468950;31;32680;-82
2021/08/17 08:13:20;;;;;;;1.87;1.45;;;;;;;20.74;65.90;99703.50;4480308;31;33473;-81
2021/08/17 08:15:48;;;;;;;1.98;1.20;;;;;;;20.67;66.24;99689.78;4478679;31;33949;-82
2021/08/17 08:18:16;;;;;;;2.95;1.30;;;;;;;20.96;65.07;99684.53;4461025;31;32442;-82
2021/08/17 08:20:43;;;;;;;1.90;1.23;;;;;;;20.79;65.53;99701.25;4469608;31;34214;-82
2021/08/17 08:23:11;;;;;;;2.42;1.02;;;;;;;20.77;65.92;99699.69;4480825;31;33848;-82
2021/08/17 08:25:40;;;;;;;1.98;0.93;;;;;;;21.21;63.75;99703.81;4478298;31;33503;-81
2021/08/17 08:28:08;;;;;;;7.35;1.80;;;;;;;21.48;64.29;99711.25;4480555;31;33491;-81
2021/08/17 08:30:36;;;;;;;1.33;0.80;;;;;;;21.66;62.82;99724.88;4485528;31;33719;-81
2021/08/17 08:33:04;;;;;;;4.37;0.80;;;;;;;21.81;60.58;99733.38;4485461;31;34448;-82
2021/08/17 08:35:32;;;;;;;1.73;0.70;;;;;;;21.35;61.07;99738.38;4478505;31;33899;-81
2021/08/17 08:37:59;;;;;;;0.90;0.60;;;;;;;21.40;58.79;99746.84;4467365;31;33030;-82
2021/08/17 08:40:28;;;;;;;1.33;0.50;;;;;;;21.07;58.87;99750.66;4488057;31;33650;-81
2021/08/17 08:42:56;;;;;;;0.75;0.50;;;;;;;20.84;59.83;99759.88;4467213;31;33189;-82
2021/08/17 08:45:25;;;;;;;0.70;0.25;;;;;;;20.71;58.86;99765.50;4485350;31;33467;-82
2021/08/17 08:47:53;;;;;;;0.45;0.30;;;;;;;21.08;57.29;99757.75;4465948;32;33756;-81
2021/08/17 08:50:22;;;;;;;1.98;0.35;;;;;;;21.15;55.42;99739.25;4488058;31;33120;-81
2021/08/17 08:52:50;;;;;;;2.40;0.40;;;;;;;21.32;55.55;99727.91;4463719;31;33329;-81
2021/08/17 08:55:18;;;;;;;1.05;0.47;;;;;;;20.74;58.10;99742.87;4470276;31;33434;-81
2021/08/17 08:57:46;;;;;;;0.90;0.40;;;;;;;21.15;55.85;99758.06;4471484;31;32355;-81
2021/08/17 09:00:14;;;;;;;0.50;0.40;;;;;;;20.94;55.58;99766.19;4462748;31;33492;-82
2021/08/17 09:02:43;;;;;;;0.40;0.20;;;;;;;20.58;54.17;99765.69;4485906;31;33306;-82
2021/08/17 09:05:10;;;;;;;0.57;0.30;;;;;;;20.54;54.79;99766.91;4484182;31;33725;-82
2021/08/17 09:07:46;;;;;;;0.85;0.50;;;;;;;20.52;55.82;99773.41;4468083;31;33282;-82
2021/08/17 09:10:24;;;;;;;2.97;0.43;;;;;;;20.55;54.20;99775.81;4465541;31;33861;-82
2021/08/17 09:12:58;;;;;;;1.10;0.43;;;;;;;20.48;53.90;99767.47;4470415;31;33729;-82
2021/08/17 09:15:34;;;;;;;1.73;0.60;;;;;;;20.69;53.96;99772.81;4469305;31;32950;-81
2021/08/17 09:18:11;;;;;;;0.82;0.40;;;;;;;20.87;53.58;99762.31;4467604;31;33421;-82
2021/08/17 09:20:42;;;;;;;2.40;0.30;;;;;;;20.97;53.23;99773.94;4475476;31;35243;-82
2021/08/17 09:23:33;;;;;;;0.68;0.30;;;;;;;20.53;56.14;99789.38;4481774;31;33279;-81
2021/08/17 09:26:20;;;;;;;1.58;0.47;;;;;;;20.76;55.90;99789.25;4486531;31;33660;-81
2021/08/17 09:28:57;;;;;;;0.70;0.40;;;;;;;20.67;54.76;99791.72;4484975;31;33135;-82
2021/08/17 09:31:45;;;;;;;3.58;0.50;;;;;;;20.64;54.25;99786.59;4485008;31;33722;-82
2021/08/17 09:34:12;;;;;;;0.90;0.68;;;;;;;20.75;51.10;99788.37;4485118;31;34026;-81
2021/08/17 09:36:42;;;;;;;1.15;0.57;;;;;;;20.84;50.19;99782.22;4473253;31;34001;-82
2021/08/17 09:39:10;;;;;;;1.10;0.50;;;;;;;20.72;52.50;99788.66;4485333;31;32671;-82
2021/08/17 09:41:38;;;;;;;0.85;0.40;;;;;;;20.48;52.18;99780.87;4471237;31;33019;-82
2021/08/17 09:44:08;;;;;;;1.52;0.50;;;;;;;20.40;53.18;99784.16;4470010;31;34080;-81
2021/08/17 09:46:38;;;;;;;1.08;0.30;;;;;;;20.63;51.90;99784.91;4472879;31;32768;-82
2021/08/17 09:49:26;;;;;;;2.50;0.50;;;;;;;20.59;51.56;99772.75;4472180;31;34331;-81
2021/08/17 09:51:54;;;;;;;2.28;0.50;;;;;;;20.52;51.59;99787.69;4466415;31;33585;-82
2021/08/17 09:54:24;;;;;;;2.33;0.60;;;;;;;20.46;53.25;99794.38;4472061;31;33136;-81
2021/08/17 09:56:57;;;;;;;3.67;0.82;;;;;;;20.44;50.84;99807.06;4490372;31;35381;-82
2021/08/17 09:59:30;;;;;;;1.80;0.50;;;;;;;20.54;47.82;99812.53;4486302;31;33475;-81
2021/08/17 10:01:58;;;;;;;2.55;0.55;;;;;;;19.93;49.68;99814.94;4476608;31;33642;-81
2021/08/17 10:04:27;;;;;;;1.55;0.73;;;;;;;20.28;45.86;99817.37;4470744;31;33699;-81
2021/08/17 10:06:58;;;;;;;2.33;0.80;;;;;;;20.26;46.45;99823.84;4469376;31;33993;-81
2021/08/17 10:09:26;;;;;;;2.95;0.60;;;;;;;20.45;44.95;99829.34;4486363;31;32977;-81
2021/08/17 10:11:58;;;;;;;1.50;0.70;;;;;;;20.20;46.19;99823.38;4464493;31;32824;-81
2021/08/17 10:14:25;;;;;;;1.40;0.50;;;;;;;20.43;44.51;99832.19;4468830;31;33964;-81
2021/08/17 10:16:53;;;;;;;2.33;0.85;;;;;;;20.36;46.18;99830.12;4469857;31;33749;-81
2021/08/17 10:19:24;;;;;;;1.25;1.00;;;;;;;20.30;46.02;99830.66;4473566;31;32468;-81
2021/08/17 10:21:54;;;;;;;0.70;0.50;;;;;;;20.29;47.49;99837.00;4487485;31;33519;-83
2021/08/17 10:24:32;;;;;;;2.75;0.62;;;;;;;20.57;45.33;99833.72;4480372;31;34961;-82
2021/08/17 10:27:21;;;;;;;2.55;0.80;;;;;;;20.35;48.78;99831.13;4472394;31;33148;-81
2021/08/17 10:30:11;;;;;;;2.65;0.73;;;;;;;20.67;46.60;99831.97;4470578;31;32512;-82
2021/08/17 10:32:40;;;;;;;3.15;0.60;;;;;;;20.79;45.60;99826.53;4481254;31;33522;-82
2021/08/17 10:35:34;;;;;;;6.25;0.65;;;;;;;20.98;44.54;99815.91;4490764;31;33385;-82
2021/08/17 10:38:08;;;;;;;2.75;1.00;;;;;;;20.62;45.59;99819.94;4489415;31;34511;-82
2021/08/17 10:40:51;;;;;;;2.40;0.90;;;;;;;20.83;45.07;99817.22;4481016;31;33615;-82
2021/08/17 10:43:43;;;;;;;8.25;0.85;;;;;;;20.90;46.38;99813.06;4483968;31;33216;-81
2021/08/17 10:46:13;;;;;;;3.72;0.93;;;;;;;21.13;44.15;99813.75;4491529;31;34540;-82
2021/08/17 10:49:06;;;;;;;2.62;1.02;;;;;;;21.00;44.66;99819.31;4471543;31;34714;-81
2021/08/17 10:51:38;;;;;;;1.92;0.73;;;;;;;20.93;43.72;99828.88;4489993;31;32922;-82
2021/08/17 10:54:06;;;;;;;2.70;0.60;;;;;;;20.57;44.11;99833.72;4479434;31;32651;-82
2021/08/17 10:56:36;;;;;;;1.50;0.70;;;;;;;20.76;42.63;99832.19;4485359;31;34280;-82
2021/08/17 10:59:05;;;;;;;3.35;0.70;;;;;;;20.80;43.00;99842.50;4479108;31;33878;-82
2021/08/17 11:01:35;;;;;;;1.85;0.68;;;;;;;21.25;41.21;99850.25;4486797;31;32989;-82
2021/08/17 11:04:09;;;;;;;3.60;1.30;;;;;;;21.15;41.81;99855.56;4483380;31;34178;-82
2021/08/17 11:06:40;;;;;;;2.65;0.70;;;;;;;20.36;45.64;99855.13;4482214;31;33972;-82
2021/08/17 11:09:18;;;;;;;3.92;0.75;;;;;;;21.01;42.07;99866.66;4481442;31;34577;-82
2021/08/17 11:11:55;;;;;;;1.08;0.57;;;;;;;20.50;44.20;99853.16;4479936;31;33028;-81
2021/08/17 11:14:25;;;;;;;2.05;0.88;;;;;;;20.94;41.98;99854.75;4481907;31;33966;-82
2021/08/17 11:17:01;;;;;;;1.40;0.52;;;;;;;21.01;41.39;99850.53;4468719;31;33913;-81
2021/08/17 11:19:34;;;;;;;1.83;0.70;;;;;;;21.09;38.56;99836.47;4465380;31;33503;-81
2021/08/17 11:22:24;;;;;;;2.75;1.00;;;;;;;20.77;38.66;99844.59;4483015;31;32743;-81
2021/08/17 11:24:56;;;;;;;1.33;0.60;;;;;;;20.82;38.65;99859.31;4474284;31;33747;-82
2021/08/17 11:27:26;;;;;;;1.67;0.45;;;;;;;20.76;41.32;99867.91;4484445;31;34370;-82
2021/08/17 11:30:03;;;;;;;1.55;0.73;;;;;;;21.09;40.66;99877.59;4475573;32;33700;-81
2021/08/17 11:32:40;;;;;;;1.42;0.50;;;;;;;21.23;40.73;99885.28;4472011;31;32272;-82
2021/08/17 11:35:15;;;;;;;3.37;1.17;;;;;;;21.07;41.61;99887.59;4461738;31;33460;-81
2021/08/17 11:37:45;;;;;;;6.35;0.80;;;;;;;21.14;42.37;99891.47;4486038;31;35003;-82
2021/08/17 11:40:15;;;;;;;1.92;0.60;;;;;;;20.85;42.72;99893.97;4486944;31;33279;-82
2021/08/17 11:42:46;;;;;;;2.37;0.95;;;;;;;20.96;41.42;99887.66;4458127;31;33502;-82
2021/08/17 11:45:20;;;;;;;3.65;0.80;;;;;;;21.08;42.15;99892.00;4473430;31;35789;-82